createdAt,value
2019-01-18T00:32:48.505Z,100.00
2019-01-18T00:35:16.379Z,100.00
2019-01-18T00:37:44.357Z,100.00
2019-01-18T00:40:13.238Z,100.00
2019-01-18T00:42:41.463Z,100.00
2019-01-18T00:45:12.158Z,100.00
2019-01-18T00:47:40.912Z,100.00
2019-01-18T00:50:11.112Z,100.00
2019-01-18T00:52:39.160Z,100.00
2019-01-18T00:55:07.872Z,100.00
2019-01-18T00:57:35.896Z,100.00
2019-01-18T01:00:06.604Z,100.00
2019-01-18T01:02:35.062Z,100.00
2019-01-18T01:05:03.021Z,100.00
2019-01-18T01:07:31.012Z,100.00
2019-01-18T01:09:59.961Z,100.00
2019-01-18T01:12:28.041Z,100.00
2019-01-18T01:14:56.011Z,100.00
2019-01-18T01:17:24.793Z,100.00
2019-01-18T01:19:52.927Z,100.00
2019-01-18T01:22:20.904Z,100.00
2019-01-18T01:24:49.469Z,100.00
2019-01-18T01:27:17.865Z,100.00
2019-01-18T01:29:46.057Z,100.00
2019-01-18T01:32:14.231Z,100.00
2019-01-18T01:34:43.025Z,100.00
2019-01-18T01:37:11.835Z,100.00
2019-01-18T01:39:39.884Z,100.00
2019-01-18T01:42:07.679Z,100.00
2019-01-18T01:44:36.128Z,100.00
2019-01-18T01:47:04.086Z,100.00
2019-01-18T01:49:32.348Z,100.00
2019-01-18T01:52:00.436Z,100.00
2019-01-18T01:54:28.634Z,100.00
2019-01-18T01:56:56.748Z,100.00
2019-01-18T01:59:25.260Z,100.00
2019-01-18T02:01:53.015Z,100.00
2019-01-18T02:04:21.705Z,100.00
2019-01-18T02:06:49.682Z,100.00
2019-01-18T02:09:17.846Z,100.00
2019-01-18T02:11:45.833Z,100.00
2019-01-18T02:14:13.986Z,100.00
2019-01-18T02:16:42.261Z,100.00
2019-01-18T02:19:11.061Z,100.00
2019-01-18T02:21:39.445Z,100.00
2019-01-18T02:24:07.804Z,100.00
2019-01-18T02:26:35.881Z,100.00
2019-01-18T02:29:04.704Z,100.00
2019-01-18T02:31:32.777Z,100.00
2019-01-18T02:34:00.885Z,100.00
2019-01-18T02:36:28.947Z,100.00
2019-01-18T02:38:56.991Z,100.00
2019-01-18T02:41:25.153Z,100.00
2019-01-18T02:43:52.967Z,100.00
2019-01-18T02:46:20.697Z,100.00
2019-01-18T02:48:48.790Z,100.00
2019-01-18T02:51:16.575Z,100.00
2019-01-18T02:53:44.905Z,100.00
2019-01-18T02:56:12.756Z,100.00
2019-01-18T02:58:40.666Z,100.00
2019-01-18T03:01:09.165Z,100.00
2019-01-18T03:03:37.360Z,100.00
2019-01-18T03:06:05.114Z,100.00
2019-01-18T03:08:33.597Z,100.00
2019-01-18T03:11:01.566Z,100.00
2019-01-18T03:13:29.808Z,100.00
2019-01-18T03:15:58.341Z,100.00
2019-01-18T03:18:26.485Z,100.00
2019-01-18T03:20:54.469Z,100.00
2019-01-18T03:23:22.809Z,100.00
2019-01-18T03:25:50.857Z,100.00
2019-01-18T03:28:18.889Z,100.00
2019-01-18T03:30:47.594Z,100.00
2019-01-18T03:33:15.881Z,100.00
2019-01-18T03:35:43.930Z,100.00
2019-01-18T03:38:12.289Z,100.00
2019-01-18T03:40:40.204Z,100.00
2019-01-18T03:43:08.086Z,100.00
2019-01-18T03:45:36.899Z,100.00
2019-01-18T03:48:05.072Z,100.00
2019-01-18T03:50:33.402Z,100.00
2019-01-18T03:53:01.644Z,100.00
2019-01-18T03:55:30.598Z,100.00
2019-01-18T03:57:58.394Z,100.00
2019-01-18T04:00:29.194Z,100.00
2019-01-18T04:02:57.449Z,100.00
2019-01-18T04:05:25.486Z,100.00
2019-01-18T04:07:54.259Z,100.00
2019-01-18T04:10:22.989Z,100.00
2019-01-18T04:12:51.314Z,100.00
2019-01-18T04:15:21.801Z,100.00
2019-01-18T04:17:50.901Z,100.00
2019-01-18T04:20:19.593Z,100.00
2019-01-18T04:22:48.168Z,100.00
2019-01-18T04:25:19.576Z,100.00
2019-01-18T04:27:47.659Z,100.00
2019-01-18T04:30:17.985Z,100.00
2019-01-18T04:32:46.001Z,100.00
2019-01-18T04:35:14.108Z,100.00
2019-01-18T04:37:42.657Z,100.00
2019-01-18T04:40:15.139Z,100.00
2019-01-18T04:42:43.477Z,100.00
2019-01-18T04:45:12.069Z,100.00
2019-01-18T04:47:40.907Z,100.00
2019-01-18T04:50:11.829Z,100.00
2019-01-18T04:52:40.081Z,100.00
2019-01-18T04:55:08.766Z,100.00
2019-01-18T04:57:37.146Z,100.00
2019-01-18T05:00:08.024Z,100.00
2019-01-18T05:02:35.865Z,100.00
2019-01-18T05:05:06.194Z,100.00
2019-01-18T05:07:34.368Z,100.00
2019-01-18T05:10:05.093Z,100.00
2019-01-18T05:12:32.956Z,100.00
2019-01-18T05:15:06.255Z,100.00
2019-01-18T05:17:34.664Z,100.00
2019-01-18T05:20:03.499Z,99.31
2019-01-18T05:22:31.947Z,98.96
2019-01-18T05:25:00.046Z,99.02
2019-01-18T05:27:28.689Z,99.35
2019-01-18T05:29:57.284Z,99.81
2019-01-18T05:32:26.397Z,100.00
2019-01-18T05:34:54.177Z,100.00
2019-01-18T05:37:22.956Z,100.00
2019-01-18T05:39:51.168Z,100.00
2019-01-18T05:42:20.751Z,100.00
2019-01-18T05:44:49.621Z,100.00
2019-01-18T05:47:18.491Z,100.00
2019-01-18T05:49:47.207Z,100.00
2019-01-18T05:52:15.401Z,100.00
2019-01-18T05:54:43.816Z,100.00
2019-01-18T05:57:11.974Z,100.00
2019-01-18T05:59:41.084Z,100.00
2019-01-18T06:02:09.204Z,100.00
2019-01-18T06:04:38.586Z,100.00
2019-01-18T06:07:06.681Z,100.00
2019-01-18T06:09:34.600Z,100.00
2019-01-18T06:12:02.778Z,100.00
2019-01-18T06:14:30.610Z,100.00
2019-01-18T06:16:58.401Z,100.00
2019-01-18T06:19:26.813Z,100.00
2019-01-18T06:21:54.556Z,100.00
2019-01-18T06:24:22.579Z,100.00
2019-01-18T06:26:51.097Z,100.00
2019-01-18T06:29:19.554Z,100.00
2019-01-18T06:31:47.502Z,100.00
2019-01-18T06:34:15.974Z,100.00
2019-01-18T06:36:43.941Z,99.90
2019-01-18T06:39:11.729Z,100.00
2019-01-18T06:41:49.799Z,99.93
2019-01-18T06:44:17.677Z,99.73
2019-01-18T06:46:46.450Z,99.83
2019-01-18T06:49:16.116Z,100.00
2019-01-18T06:51:44.582Z,100.00
2019-01-18T06:54:12.689Z,100.00
2019-01-18T06:56:40.421Z,100.00
2019-01-18T06:59:08.220Z,100.00
2019-01-18T07:01:36.285Z,100.00
2019-01-18T07:04:04.547Z,100.00
2019-01-18T07:06:32.298Z,100.00
2019-01-18T07:09:00.965Z,100.00
2019-01-18T07:11:28.779Z,100.00
2019-01-18T07:13:56.569Z,100.00
2019-01-18T07:16:25.198Z,100.00
2019-01-18T07:18:53.100Z,100.00
2019-01-18T07:21:24.326Z,100.00
2019-01-18T07:23:52.791Z,100.00
2019-01-18T07:26:20.845Z,100.00
2019-01-18T07:28:49.072Z,100.00
2019-01-18T07:31:17.417Z,100.00
2019-01-18T07:33:45.154Z,100.00
2019-01-18T07:36:12.994Z,100.00
2019-01-18T07:38:41.568Z,100.00
2019-01-18T07:41:09.439Z,100.00
2019-01-18T07:43:37.535Z,100.00
2019-01-18T07:46:06.338Z,100.00
2019-01-18T07:48:34.198Z,100.00
2019-01-18T07:51:01.973Z,100.00
2019-01-18T07:53:30.198Z,100.00
2019-01-18T07:55:57.945Z,100.00
2019-01-18T07:58:25.942Z,100.00
2019-01-18T08:00:53.996Z,100.00
2019-01-18T08:03:21.947Z,100.00
2019-01-18T08:05:50.030Z,100.00
2019-01-18T08:08:18.017Z,100.00
2019-01-18T08:10:45.949Z,100.00
2019-01-18T08:13:14.019Z,100.00
2019-01-18T08:15:42.696Z,100.00
2019-01-18T08:18:10.705Z,100.00
2019-01-18T08:20:38.686Z,100.00
2019-01-18T08:23:06.524Z,100.00
2019-01-18T08:25:34.549Z,100.00
2019-01-18T08:28:03.515Z,100.00
2019-01-18T08:30:31.707Z,100.00
2019-01-18T08:32:59.649Z,100.00
2019-01-18T08:35:28.635Z,100.00
2019-01-18T08:37:56.410Z,100.00
2019-01-18T08:40:36.071Z,100.00
2019-01-18T08:43:05.625Z,100.00
2019-01-18T08:45:37.357Z,100.00
2019-01-18T08:48:06.378Z,100.00
2019-01-18T08:50:34.513Z,100.00
2019-01-18T08:53:02.493Z,100.00
2019-01-18T08:55:30.425Z,100.00
2019-01-18T08:57:58.254Z,100.00
2019-01-18T09:00:26.694Z,100.00
2019-01-18T09:02:56.015Z,100.00
2019-01-18T09:05:24.897Z,100.00
2019-01-18T09:07:53.656Z,100.00
2019-01-18T09:10:22.792Z,100.00
2019-01-18T09:12:50.863Z,100.00
2019-01-18T09:15:19.389Z,100.00
2019-01-18T09:17:47.201Z,100.00
2019-01-18T09:20:17.687Z,100.00
2019-01-18T09:22:45.495Z,100.00
2019-01-18T09:25:13.572Z,100.00
2019-01-18T09:27:41.366Z,100.00
2019-01-18T09:30:13.328Z,100.00
2019-01-18T09:32:42.686Z,100.00
2019-01-18T09:35:11.865Z,100.00
2019-01-18T09:37:40.187Z,100.00
2019-01-18T09:40:11.940Z,99.79
2019-01-18T09:42:40.898Z,99.20
2019-01-18T09:45:09.496Z,98.46
2019-01-18T09:47:37.486Z,97.02
2019-01-18T09:50:09.317Z,95.39
2019-01-18T09:52:37.047Z,95.22
2019-01-18T09:55:05.611Z,95.71
2019-01-18T09:57:33.937Z,95.92
2019-01-18T10:00:01.721Z,95.57
2019-01-18T10:02:29.680Z,94.88
2019-01-18T10:04:57.852Z,93.57
2019-01-18T10:07:25.669Z,92.89
2019-01-18T10:09:53.468Z,92.40
2019-01-18T10:12:22.035Z,91.25
2019-01-18T10:14:49.817Z,90.15
2019-01-18T10:17:17.613Z,89.90
2019-01-18T10:19:45.831Z,88.64
2019-01-18T10:22:13.827Z,88.54
2019-01-18T10:24:41.995Z,87.40
2019-01-18T10:27:17.050Z,86.32
2019-01-18T10:29:44.893Z,84.75
2019-01-18T10:32:12.958Z,84.45
2019-01-18T10:34:41.676Z,83.36
2019-01-18T10:37:09.670Z,80.65
2019-01-18T10:39:37.401Z,81.88
2019-01-18T10:42:05.631Z,79.51
2019-01-18T10:44:33.400Z,79.76
2019-01-18T10:47:01.144Z,79.41
2019-01-18T10:49:29.310Z,78.50
2019-01-18T10:51:57.035Z,78.85
2019-01-18T10:54:25.057Z,78.21
2019-01-18T10:56:53.498Z,77.50
2019-01-18T10:59:21.338Z,78.15
2019-01-18T11:01:49.322Z,78.50
2019-01-18T11:04:17.599Z,81.06
2019-01-18T11:06:45.369Z,82.73
2019-01-18T11:09:13.599Z,83.71
2019-01-18T11:11:41.374Z,82.95
2019-01-18T11:14:09.269Z,83.71
2019-01-18T11:16:38.455Z,83.58
2019-01-18T11:19:06.461Z,83.05
2019-01-18T11:21:34.582Z,82.52
2019-01-18T11:24:03.113Z,82.58
2019-01-18T11:26:31.024Z,82.84
2019-01-18T11:28:59.161Z,83.02
2019-01-18T11:31:27.503Z,82.51
2019-01-18T11:33:55.327Z,81.76
2019-01-18T11:36:23.279Z,82.06
2019-01-18T11:38:51.525Z,81.71
2019-01-18T11:41:19.809Z,81.59
2019-01-18T11:43:47.646Z,81.79
2019-01-18T11:46:15.659Z,81.89
2019-01-18T11:48:43.700Z,79.71
2019-01-18T11:51:11.594Z,80.62
2019-01-18T11:53:39.343Z,80.65
2019-01-18T11:56:07.574Z,78.65
2019-01-18T11:58:35.506Z,80.09
2019-01-18T12:01:04.471Z,80.77
2019-01-18T12:03:32.249Z,81.80
2019-01-18T12:06:00.099Z,81.31
2019-01-18T12:08:28.038Z,79.76
2019-01-18T12:10:55.942Z,79.53
2019-01-18T12:13:23.791Z,78.19
2019-01-18T12:15:52.066Z,78.67
2019-01-18T12:18:19.827Z,78.57
2019-01-18T12:20:47.689Z,78.07
2019-01-18T12:23:16.131Z,77.89
2019-01-18T12:25:44.078Z,77.71
2019-01-18T12:28:12.181Z,77.37
2019-01-18T12:30:41.221Z,77.36
2019-01-18T12:33:09.033Z,77.71
2019-01-18T12:35:36.826Z,77.02
2019-01-18T12:38:05.162Z,77.00
2019-01-18T12:40:33.081Z,77.20
2019-01-18T12:43:01.437Z,76.75
2019-01-18T12:45:31.982Z,76.78
2019-01-18T12:47:59.951Z,77.39
2019-01-18T12:50:32.107Z,77.05
2019-01-18T12:53:00.286Z,77.40
2019-01-18T12:55:28.172Z,77.46
2019-01-18T12:57:56.091Z,76.98
2019-01-18T13:00:24.744Z,76.53
2019-01-18T13:02:52.694Z,76.07
2019-01-18T13:05:25.397Z,75.93
2019-01-18T13:07:53.566Z,76.31
2019-01-18T13:10:22.190Z,76.08
2019-01-18T13:12:50.145Z,76.28
2019-01-18T13:15:22.825Z,76.84
2019-01-18T13:17:52.261Z,77.04
2019-01-18T13:20:20.674Z,77.16
2019-01-18T13:22:49.493Z,77.15
2019-01-18T13:25:17.638Z,77.35
2019-01-18T13:27:45.517Z,77.22
2019-01-18T13:30:14.998Z,77.59
2019-01-18T13:32:43.529Z,77.66
2019-01-18T13:35:11.609Z,77.13
2019-01-18T13:37:39.969Z,77.20
2019-01-18T13:40:13.321Z,77.20
2019-01-18T13:42:42.293Z,77.31
2019-01-18T13:45:11.010Z,77.43
2019-01-18T13:47:39.336Z,76.93
2019-01-18T13:50:10.106Z,77.49
2019-01-18T13:52:38.636Z,76.94
2019-01-18T13:55:11.954Z,77.65
2019-01-18T13:57:39.929Z,77.19
2019-01-18T14:00:09.404Z,76.11
2019-01-18T14:02:40.586Z,75.52
2019-01-18T14:05:07.426Z,76.33
2019-01-18T14:07:36.152Z,76.10
2019-01-18T14:10:05.404Z,75.82
2019-01-18T14:12:33.426Z,76.62
2019-01-18T14:15:02.026Z,76.22
2019-01-18T14:17:30.300Z,76.82
2019-01-18T14:19:59.528Z,77.41
2019-01-18T14:22:27.486Z,77.59
2019-01-18T14:24:55.846Z,77.77
2019-01-18T14:27:24.148Z,77.52
2019-01-18T14:29:52.955Z,76.83
2019-01-18T14:32:20.815Z,77.32
2019-01-18T14:34:48.930Z,77.27
2019-01-18T14:37:17.030Z,77.61
2019-01-18T14:39:45.112Z,77.49
2019-01-18T14:42:13.474Z,77.22
2019-01-18T14:44:44.281Z,77.22
2019-01-18T14:47:12.379Z,77.33
2019-01-18T14:49:42.582Z,77.35
2019-01-18T14:52:13.691Z,77.72
2019-01-18T14:54:48.489Z,77.72
2019-01-18T14:57:18.841Z,77.71
2019-01-18T14:59:49.222Z,77.74
2019-01-18T15:02:17.654Z,77.86
2019-01-18T15:04:46.685Z,78.24
2019-01-18T15:07:14.843Z,78.35
2019-01-18T15:09:43.139Z,78.35
2019-01-18T15:12:11.099Z,78.57
2019-01-18T15:14:40.245Z,78.79
2019-01-18T15:17:08.990Z,78.12
2019-01-18T15:19:37.122Z,78.54
2019-01-18T15:22:05.410Z,78.75
2019-01-18T15:24:36.262Z,78.83
2019-01-18T15:27:06.406Z,79.22
2019-01-18T15:29:35.415Z,79.08
2019-01-18T15:32:04.469Z,79.16
2019-01-18T15:34:32.336Z,79.24
2019-01-18T15:37:02.159Z,79.58
2019-01-18T15:39:31.105Z,80.05
2019-01-18T15:41:59.353Z,80.31
2019-01-18T15:44:27.362Z,80.60
2019-01-18T15:46:56.424Z,81.10
2019-01-18T15:49:24.677Z,81.45
2019-01-18T15:51:52.694Z,81.73
2019-01-18T15:54:21.366Z,81.70
2019-01-18T15:56:49.998Z,81.75
2019-01-18T15:59:17.915Z,81.96
2019-01-18T16:01:47.369Z,82.36
2019-01-18T16:04:15.574Z,82.66
2019-01-18T16:06:44.045Z,82.91
2019-01-18T16:09:13.763Z,83.08
2019-01-18T16:11:42.069Z,83.41
2019-01-18T16:14:10.747Z,83.67
2019-01-18T16:16:46.807Z,83.74
2019-01-18T16:19:14.927Z,83.97
2019-01-18T16:21:43.507Z,83.98
2019-01-18T16:24:11.718Z,84.06
2019-01-18T16:26:39.808Z,84.29
2019-01-18T16:29:08.450Z,84.45
2019-01-18T16:31:36.900Z,84.58
2019-01-18T16:34:05.333Z,84.78
2019-01-18T16:36:34.184Z,85.04
2019-01-18T16:39:04.752Z,85.39
2019-01-18T16:41:37.300Z,85.63
2019-01-18T16:44:06.225Z,85.90
2019-01-18T16:46:34.826Z,86.27
2019-01-18T16:49:04.199Z,86.55
2019-01-18T16:51:33.240Z,86.84
2019-01-18T16:54:01.919Z,87.01
2019-01-18T16:56:30.244Z,87.16
2019-01-18T16:59:00.951Z,87.34
2019-01-18T17:01:30.089Z,87.46
2019-01-18T17:03:58.359Z,87.79
2019-01-18T17:06:27.938Z,88.09
2019-01-18T17:08:55.968Z,88.48
2019-01-18T17:11:24.129Z,88.64
2019-01-18T17:13:52.698Z,88.72
2019-01-18T17:16:20.559Z,88.80
2019-01-18T17:18:48.686Z,88.91
2019-01-18T17:21:17.014Z,89.08
2019-01-18T17:23:45.562Z,89.23
2019-01-18T17:26:13.782Z,89.34
2019-01-18T17:28:41.992Z,89.50
2019-01-18T17:31:10.333Z,89.62
2019-01-18T17:33:38.594Z,89.62
2019-01-18T17:36:16.741Z,89.69
2019-01-18T17:39:50.998Z,89.99
2019-01-18T17:42:28.181Z,90.29
2019-01-18T17:45:24.541Z,90.58
2019-01-18T17:48:38.424Z,91.02
2019-01-18T17:52:20.841Z,92.05
2019-01-18T17:55:03.629Z,92.68
2019-01-18T17:58:14.608Z,92.63
2019-01-18T18:03:00.461Z,92.64
2019-01-18T18:05:41.343Z,93.09
2019-01-18T18:08:32.876Z,93.16
2019-01-18T18:13:14.475Z,93.07
2019-01-18T18:15:54.547Z,93.40
2019-01-18T18:20:35.612Z,93.57
2019-01-18T18:23:18.653Z,93.82
2019-01-18T18:26:02.678Z,94.29
2019-01-18T18:30:47.395Z,94.93
2019-01-18T18:33:30.939Z,95.23
2019-01-18T18:36:28.824Z,95.09
2019-01-18T18:45:27.765Z,95.02
2019-01-18T18:48:05.729Z,94.78
2019-01-18T18:51:06.754Z,95.03
2019-01-18T18:54:57.873Z,95.32
2019-01-18T18:57:40.078Z,95.63
2019-01-18T19:00:16.169Z,95.86
2019-01-18T19:02:58.740Z,95.95
2019-01-18T19:05:47.002Z,95.95
2019-01-18T19:08:34.807Z,96.04
2019-01-18T19:11:18.662Z,96.29
2019-01-18T19:14:12.610Z,96.55
2019-01-18T19:19:00.068Z,96.52
2019-01-18T19:21:40.059Z,96.60
2019-01-18T19:24:31.213Z,96.74
2019-01-18T19:27:20.132Z,96.65
2019-01-18T19:40:22.391Z,96.66
2019-01-18T19:44:14.637Z,96.45
2019-01-18T19:47:12.260Z,96.47
2019-01-18T19:51:54.651Z,96.65
2019-01-18T19:54:38.634Z,97.30
2019-01-18T19:57:21.983Z,97.60
2019-01-18T20:00:01.825Z,97.81
2019-01-18T20:02:38.123Z,98.04
2019-01-18T20:05:21.394Z,98.47
2019-01-18T20:10:07.516Z,98.78
2019-01-18T20:14:56.153Z,99.72
2019-01-18T20:17:47.092Z,100.00
2019-01-18T20:20:30.914Z,100.00
2019-01-18T20:23:11.962Z,100.00
2019-01-18T20:25:48.542Z,100.00
2019-01-18T20:29:00.354Z,99.75
2019-01-18T20:32:48.695Z,99.45
2019-01-18T20:35:32.167Z,99.05
2019-01-18T20:38:18.625Z,98.95
2019-01-18T20:41:04.893Z,98.98
2019-01-18T20:43:43.061Z,98.96
2019-01-18T20:46:25.515Z,98.98
2019-01-18T20:49:03.420Z,98.92
2019-01-18T20:51:51.795Z,99.15
2019-01-18T20:54:48.596Z,99.38
2019-01-18T20:57:28.565Z,99.40
2019-01-18T21:03:12.389Z,99.66
2019-01-18T21:05:55.205Z,100.00
2019-01-18T21:08:37.922Z,100.00
2019-01-18T21:11:21.484Z,100.00
2019-01-18T21:14:16.619Z,100.00
2019-01-18T21:16:58.548Z,100.00
2019-01-18T21:20:35.752Z,100.00
2019-01-18T21:25:50.325Z,100.00
2019-01-18T21:30:39.321Z,100.00
2019-01-18T21:35:20.309Z,100.00
2019-01-18T21:38:04.077Z,100.00
2019-01-18T21:40:43.153Z,100.00
2019-01-18T21:43:21.994Z,100.00
2019-01-18T21:46:09.133Z,100.00
2019-01-18T21:49:22.944Z,100.00
2019-01-18T21:52:09.087Z,100.00
2019-01-18T21:54:50.804Z,100.00
2019-01-18T21:57:32.846Z,100.00
2019-01-18T22:00:13.772Z,100.00
2019-01-18T22:04:59.154Z,100.00
2019-01-18T22:08:09.943Z,100.00
2019-01-18T22:10:57.338Z,100.00
2019-01-18T22:13:34.690Z,100.00
2019-01-18T22:16:23.282Z,100.00
2019-01-18T22:21:11.112Z,100.00
2019-01-18T22:23:49.147Z,100.00
2019-01-18T22:26:32.173Z,100.00
2019-01-18T22:29:11.859Z,100.00
2019-01-18T22:31:54.402Z,100.00
2019-01-18T22:34:47.525Z,100.00
2019-01-18T22:37:26.460Z,100.00
2019-01-18T22:42:10.450Z,100.00
2019-01-18T22:45:25.148Z,100.00
2019-01-18T22:48:06.385Z,100.00
2019-01-18T22:50:52.716Z,100.00
2019-01-18T22:55:39.759Z,100.00
2019-01-18T22:58:32.491Z,100.00
2019-01-18T23:01:18.406Z,100.00
2019-01-18T23:06:08.648Z,100.00
2019-01-18T23:09:16.579Z,100.00
2019-01-18T23:11:51.794Z,100.00
2019-01-18T23:14:31.873Z,100.00
2019-01-18T23:17:11.823Z,100.00
2019-01-18T23:20:15.295Z,100.00
2019-01-18T23:23:03.416Z,100.00
2019-01-18T23:27:00.909Z,100.00
2019-01-18T23:29:41.862Z,100.00
2019-01-18T23:33:25.858Z,100.00
2019-01-18T23:36:33.326Z,100.00
2019-01-18T23:39:47.709Z,100.00
2019-01-18T23:42:52.514Z,100.00
2019-01-18T23:45:36.847Z,100.00
2019-01-18T23:48:40.988Z,100.00
2019-01-18T23:53:21.014Z,100.00
2019-01-18T23:55:58.526Z,100.00
2019-01-18T23:58:45.754Z,100.00
